KLCH/LCH METAR and TAF weather

Enter ICAO airport designator
Station Type Date Time Source
KLCH METAR 2021/09/20 04:53 UTC NOAA

KLCH 200453Z AUTO 14004KT 10SM CLR 24/23 A2991 RMK AO2 SLP135 T02440233 $


Station Type Date Time Source
KLCH Decoded METAR 2021/09/20 04:53 UTC NOAA

LAKE CHARLES REGIONAL AIRPORT , LA, United States (KLCH) 30-12N 093-23W 3M
Sep 20, 2021 - 12:53 AM EDT / 2021.09.20 0453 UTC
Wind: from the SE (140 degrees) at 5 MPH (4 KT):0
Visibility: 10 mile(s):0
Sky conditions: clear
Temperature: 75.9 F (24.4 C)
Dew Point: 73.9 F (23.3 C)
Relative Humidity: 93%
Pressure (altimeter): 29.91 in. Hg (1012 hPa)
ob: KLCH 200453Z AUTO 14004KT 10SM CLR 24/23 A2991 RMK AO2 SLP135 T02440233
cycle: 5

Station Type Date Time Source
KLCH TAF 2021/09/19 18:45 UTC NOAA

TAF KLCH 191743Z 1918/2018 VRB05KT P6SM FEW020 BKN025
FM191900 VRB05KT P6SM VCTS BKN025CB
TEMPO 1919/1923 4SM -TSRA
FM200100 VRB04KT P6SM BKN150
FM200900 00000KT 4SM BR SCT250
FM201300 VRB05KT P6SM SCT025

Example: see airport list